createdAt,value
2023-05-07T00:04:22.270Z,55.10
2023-05-07T00:09:24.168Z,55.10
2023-05-07T00:14:26.161Z,55.45
2023-05-07T00:19:27.992Z,55.61
2023-05-07T00:24:29.852Z,55.54
2023-05-07T00:29:31.691Z,55.48
2023-05-07T00:34:33.554Z,55.56
2023-05-07T00:39:36.056Z,55.70
2023-05-07T00:44:37.881Z,55.82
2023-05-07T00:49:45.602Z,55.93
2023-05-07T00:54:49.022Z,56.03
2023-05-07T00:59:53.122Z,56.06
2023-05-07T01:04:56.526Z,55.95
2023-05-07T01:09:59.182Z,56.19
2023-05-07T01:15:02.046Z,56.29
2023-05-07T01:20:06.241Z,56.31
2023-05-07T01:25:09.308Z,56.27
2023-05-07T01:30:16.348Z,56.19
2023-05-07T01:35:21.809Z,56.27
2023-05-07T01:40:25.667Z,56.44
2023-05-07T01:45:28.710Z,56.60
2023-05-07T01:50:32.920Z,56.37
2023-05-07T01:55:34.926Z,56.65
2023-05-07T02:00:37.574Z,56.75
2023-05-07T02:05:40.287Z,56.74
2023-05-07T02:10:59.708Z,56.77
2023-05-07T02:16:02.702Z,56.74
2023-05-07T02:21:04.987Z,56.90
2023-05-07T02:26:07.840Z,56.74
2023-05-07T02:31:09.678Z,56.86
2023-05-07T02:36:12.736Z,57.22
2023-05-07T02:41:21.678Z,56.92
2023-05-07T02:46:23.842Z,56.83
2023-05-07T02:51:33.895Z,56.71
2023-05-07T02:56:38.856Z,56.40
2023-05-07T03:01:41.179Z,56.55
2023-05-07T03:06:44.650Z,56.66
2023-05-07T03:11:46.512Z,56.68
2023-05-07T03:16:48.531Z,56.59
2023-05-07T03:21:50.430Z,56.79
2023-05-07T03:26:52.648Z,56.77
2023-05-07T03:31:55.118Z,56.52
2023-05-07T03:36:57.104Z,56.72
2023-05-07T03:42:00.177Z,56.59
2023-05-07T03:47:02.289Z,56.63
2023-05-07T03:52:04.575Z,56.61
2023-05-07T03:57:07.337Z,56.76
2023-05-07T04:02:09.861Z,56.56
2023-05-07T04:07:12.035Z,56.70
2023-05-07T04:12:18.439Z,56.64
2023-05-07T04:17:20.507Z,56.76
2023-05-07T04:22:22.407Z,56.90
2023-05-07T04:27:24.343Z,56.96
2023-05-07T04:32:26.259Z,56.93
2023-05-07T04:37:28.722Z,56.87
2023-05-07T04:42:30.824Z,56.94
2023-05-07T04:47:32.848Z,56.98
2023-05-07T04:52:36.884Z,56.79
2023-05-07T04:57:40.627Z,56.88
2023-05-07T05:02:43.475Z,56.90
2023-05-07T05:07:50.143Z,56.93
2023-05-07T05:12:52.281Z,56.99
2023-05-07T05:17:55.512Z,57.01
2023-05-07T05:22:57.895Z,56.95
2023-05-07T05:27:59.780Z,57.04
2023-05-07T05:33:02.056Z,56.98
2023-05-07T05:38:04.393Z,56.97
2023-05-07T05:43:07.220Z,56.97
2023-05-07T05:48:09.736Z,56.88
2023-05-07T05:53:11.898Z,57.04
2023-05-07T05:58:16.362Z,57.05
2023-05-07T06:03:24.961Z,56.76
2023-05-07T06:08:30.414Z,56.89
2023-05-07T06:13:32.739Z,57.07
2023-05-07T06:18:37.138Z,56.90
2023-05-07T06:23:40.713Z,56.85
2023-05-07T06:28:43.309Z,57.03
2023-05-07T06:33:48.886Z,56.92
2023-05-07T06:38:51.205Z,56.89
2023-05-07T06:43:53.156Z,56.81
2023-05-07T06:49:07.606Z,57.01
2023-05-07T06:54:09.909Z,56.88
2023-05-07T06:59:14.283Z,57.16
2023-05-07T07:04:17.158Z,56.90
2023-05-07T07:09:24.002Z,57.08
2023-05-07T07:14:27.421Z,56.84
2023-05-07T07:19:30.565Z,56.68
2023-05-07T07:24:33.808Z,56.89
2023-05-07T07:29:39.365Z,56.61
2023-05-07T07:34:41.329Z,56.78
2023-05-07T07:39:43.979Z,56.77
2023-05-07T07:44:46.755Z,56.60
2023-05-07T07:49:50.864Z,56.64
2023-05-07T07:54:53.660Z,56.53
2023-05-07T07:59:57.600Z,56.86
2023-05-07T08:05:00.091Z,56.73
2023-05-07T08:10:03.624Z,56.47
2023-05-07T08:15:06.250Z,56.36
2023-05-07T08:20:09.102Z,56.28
2023-05-07T08:25:11.240Z,56.16
2023-05-07T08:30:14.403Z,56.02
2023-05-07T08:35:16.277Z,55.95
2023-05-07T08:40:18.513Z,55.99
2023-05-07T08:45:22.105Z,55.78
2023-05-07T08:50:26.532Z,55.99
2023-05-07T08:55:30.249Z,56.16
2023-05-07T09:00:33.285Z,55.76
2023-05-07T09:05:37.159Z,55.57
2023-05-07T09:10:41.848Z,55.59
2023-05-07T09:15:44.181Z,55.46
2023-05-07T09:20:46.889Z,55.31
2023-05-07T09:25:49.289Z,55.33
2023-05-07T09:30:57.759Z,55.24
2023-05-07T09:35:59.726Z,55.19
2023-05-07T09:41:10.538Z,54.92
2023-05-07T09:46:25.495Z,55.06
2023-05-07T09:51:42.701Z,54.82
2023-05-07T09:56:50.322Z,54.47
2023-05-07T10:01:58.985Z,54.47
2023-05-07T10:07:02.581Z,54.56
2023-05-07T10:12:07.208Z,54.08
2023-05-07T10:17:12.969Z,53.88
2023-05-07T10:22:18.401Z,53.52
2023-05-07T10:27:23.756Z,53.67
2023-05-07T10:32:38.666Z,53.12
2023-05-07T10:37:43.118Z,52.95
2023-05-07T10:43:14.708Z,53.47
2023-05-07T10:48:30.259Z,52.86
2023-05-07T10:53:41.363Z,53.07
2023-05-07T10:58:52.224Z,53.13
2023-05-07T11:04:18.542Z,52.90
2023-05-07T11:09:53.611Z,52.75
2023-05-07T11:15:10.480Z,52.64
2023-05-07T11:20:14.201Z,52.57
2023-05-07T11:25:24.350Z,52.32
2023-05-07T11:30:36.433Z,52.29
2023-05-07T11:35:40.551Z,52.18
2023-05-07T11:40:56.488Z,52.14
2023-05-07T11:46:10.162Z,51.81
2023-05-07T11:51:14.936Z,51.57
2023-05-07T11:56:18.833Z,51.47
2023-05-07T12:01:20.736Z,51.69
2023-05-07T12:06:22.622Z,51.29
2023-05-07T12:11:26.348Z,51.24
2023-05-07T12:16:28.883Z,51.34
2023-05-07T12:21:30.850Z,50.95
2023-05-07T12:26:32.741Z,50.83
2023-05-07T12:31:34.846Z,51.09
2023-05-07T12:36:41.298Z,50.80
2023-05-07T12:42:00.277Z,50.69
2023-05-07T12:47:05.076Z,50.46
2023-05-07T12:52:07.599Z,50.42
2023-05-07T12:57:10.684Z,50.64
2023-05-07T13:02:12.739Z,50.49
2023-05-07T13:07:16.541Z,50.50
2023-05-07T13:12:18.466Z,50.15
2023-05-07T13:17:20.585Z,50.18
2023-05-07T13:22:22.969Z,50.23
2023-05-07T13:27:25.402Z,50.00
2023-05-07T13:32:27.573Z,50.01
2023-05-07T13:37:29.634Z,50.22
2023-05-07T13:42:32.372Z,50.29
2023-05-07T13:47:34.336Z,50.06
2023-05-07T13:52:36.247Z,50.02
2023-05-07T13:57:38.639Z,49.89
2023-05-07T14:02:41.571Z,49.69
2023-05-07T14:07:43.552Z,49.87
2023-05-07T14:12:46.412Z,49.65
2023-05-07T14:17:49.790Z,49.44
2023-05-07T14:22:51.879Z,49.27
2023-05-07T14:27:53.866Z,49.10
2023-05-07T14:32:55.929Z,49.40
2023-05-07T14:37:57.774Z,48.93
2023-05-07T14:43:00.144Z,49.13
2023-05-07T14:48:02.020Z,49.00
2023-05-07T14:53:04.957Z,49.08
2023-05-07T14:58:06.822Z,48.88
2023-05-07T15:03:11.001Z,48.64
2023-05-07T15:08:13.016Z,48.95
2023-05-07T15:13:16.240Z,48.99
2023-05-07T15:18:18.262Z,48.98
2023-05-07T15:23:20.089Z,48.82
2023-05-07T15:28:25.556Z,48.60
2023-05-07T15:33:30.558Z,48.62
2023-05-07T15:38:32.383Z,48.74
2023-05-07T15:43:34.465Z,48.52
2023-05-07T15:48:37.286Z,48.41
2023-05-07T15:53:40.906Z,48.43
2023-05-07T15:58:42.785Z,48.67
2023-05-07T16:03:45.134Z,48.45
2023-05-07T16:08:47.916Z,48.50
2023-05-07T16:13:50.071Z,48.64
2023-05-07T16:18:51.988Z,48.48
2023-05-07T16:23:54.022Z,48.76
2023-05-07T16:28:56.700Z,48.51
2023-05-07T16:33:59.521Z,48.45
2023-05-07T16:39:01.465Z,48.35
2023-05-07T16:44:04.000Z,48.41
2023-05-07T16:49:06.586Z,48.85
2023-05-07T16:54:09.624Z,48.50
2023-05-07T16:59:11.952Z,48.80
2023-05-07T17:04:14.805Z,48.58
2023-05-07T17:09:20.201Z,48.85
2023-05-07T17:14:22.096Z,48.69
2023-05-07T17:19:23.948Z,48.49
2023-05-07T17:24:25.821Z,48.75
2023-05-07T17:29:27.657Z,48.78
2023-05-07T17:34:31.176Z,48.52
2023-05-07T17:39:33.128Z,48.69
2023-05-07T17:44:35.464Z,48.57
2023-05-07T17:49:37.544Z,48.80
2023-05-07T17:54:39.430Z,48.74
2023-05-07T17:59:42.150Z,48.81
2023-05-07T18:04:46.497Z,48.62
2023-05-07T18:09:48.787Z,48.52
2023-05-07T18:14:51.229Z,48.81
2023-05-07T18:19:55.189Z,48.95
2023-05-07T18:24:58.034Z,49.14
2023-05-07T18:30:00.509Z,49.07
2023-05-07T18:35:03.126Z,48.95
2023-05-07T18:40:06.544Z,49.21
2023-05-07T18:45:08.834Z,49.26
2023-05-07T18:50:11.635Z,49.31
2023-05-07T18:55:13.933Z,49.00
2023-05-07T19:00:16.488Z,48.92
2023-05-07T19:05:18.653Z,49.37
2023-05-07T19:10:20.878Z,49.51
2023-05-07T19:15:23.514Z,49.55
2023-05-07T19:20:25.425Z,49.58
2023-05-07T19:25:27.704Z,49.80
2023-05-07T19:30:29.848Z,49.77
2023-05-07T19:35:31.716Z,49.88
2023-05-07T19:40:33.603Z,50.02
2023-05-07T19:45:35.569Z,50.13
2023-05-07T19:50:37.636Z,50.02
2023-05-07T19:55:39.615Z,50.16
2023-05-07T20:00:43.180Z,50.21
2023-05-07T20:05:47.499Z,50.19
2023-05-07T20:10:50.528Z,50.08
2023-05-07T20:15:52.716Z,50.26
2023-05-07T20:20:55.664Z,50.39
2023-05-07T20:25:58.356Z,50.42
2023-05-07T20:31:00.165Z,50.95
2023-05-07T20:36:02.036Z,50.73
2023-05-07T20:41:08.619Z,50.73
2023-05-07T20:46:10.524Z,50.58
2023-05-07T20:51:13.810Z,50.75
2023-05-07T20:56:16.049Z,50.69
2023-05-07T21:01:18.101Z,50.65
2023-05-07T21:06:26.215Z,50.61
2023-05-07T21:11:28.162Z,50.91
2023-05-07T21:16:30.014Z,50.82
2023-05-07T21:21:32.223Z,50.85
2023-05-07T21:26:34.097Z,50.71
2023-05-07T21:31:36.052Z,50.56
2023-05-07T21:36:37.968Z,50.37
2023-05-07T21:41:39.787Z,50.49
2023-05-07T21:46:41.710Z,50.56
2023-05-07T21:51:43.851Z,50.56
2023-05-07T21:56:46.566Z,50.32
2023-05-07T22:01:49.503Z,50.51
2023-05-07T22:06:51.388Z,50.51
2023-05-07T22:11:53.201Z,50.53
2023-05-07T22:16:55.033Z,50.50
2023-05-07T22:21:56.857Z,50.76
2023-05-07T22:26:58.672Z,51.13
2023-05-07T22:32:00.554Z,51.27
2023-05-07T22:37:02.443Z,51.01
2023-05-07T22:42:04.296Z,51.42
2023-05-07T22:47:06.126Z,51.23
2023-05-07T22:52:07.977Z,51.25
2023-05-07T22:57:09.841Z,50.95
2023-05-07T23:02:11.799Z,51.05
2023-05-07T23:07:13.936Z,51.17
2023-05-07T23:12:15.751Z,51.04
2023-05-07T23:17:18.139Z,51.50
2023-05-07T23:22:19.999Z,50.98
2023-05-07T23:27:21.950Z,51.20
2023-05-07T23:32:23.850Z,51.02
2023-05-07T23:37:25.676Z,51.30
2023-05-07T23:42:27.511Z,51.02
2023-05-07T23:47:30.483Z,51.44
2023-05-07T23:52:32.367Z,51.37
2023-05-07T23:57:34.201Z,51.54
